Airfield :
LOGIN :

Register | Disclaimer

   EN    FR    IT 

 










Legend :    VFR   Marginal VFR   IFR   Intensive IFR   Very Intensive IFR
Visi :
Ceiling :
>= 8 km
>= 3000ft
5 to 8 km
1000 to 3000 ft
1500m to 5 km
500 to 1000 ft
800 to 1500m
200 to 500 ft
< 800m
< 200 ft
Symbols :   Thunderstorms  Fog  Heavy snow  Heavy precipitations  Wind > 20 kt
SIGMETs :     Misc.  Thunderstorms  Icing  Turbulence  Mountain Waves  Volcanic Ashes







- Airport Elevation : 102 ft
- IATA code : CNG
- Download approach charts


LFBG - Cognac

CURRENT METAR :
  • 262300Z AUTO 05004KT CAVOK 05/00 Q1018

EXPIRED METARs :
  • 262230Z AUTO 06001KT CAVOK 05/M01 Q1018
  • 262200Z AUTO 32002KT CAVOK 05/M01 Q1018
  • 262130Z AUTO 11003KT 070V140 CAVOK 05/M01 Q1018
  • 262100Z AUTO 02002KT CAVOK 06/M00 Q1018
  • 262030Z AUTO 36007KT CAVOK 07/M01 Q1018

TAF TAF LFBG
Valid from the 26 at 15:00 until the 27 at 15:00 UTC


261400Z 2615/2715 02008KT CAVOK
TEMPO 2615/2621 04015G25KT 4000 SHRA BKN025TCU
PROB30
TEMPO 2704/2707 BKN003
TEMPO 2710/2715 36015G25KT 4000 SHRA BKN025TCU
No reported NOTAMs for that airfield.
1 SIGMET reported for the Bordeaux FIR (LFBB) :
 
Severe turbulence
LFBB SIGMET 2 VALID 262300/270300 LFPW
LFBB BORDEAUX FIR/UIR SEV TURB FCST WI N4530 E00300 - N4400 W00100 - N4645 E00245 FL140/230 STNR NC=



MET'MAP, your aeronautical weather chart ! - Copyright ORBIFLY December 2007 - Disclaimer

ORBIFLY MET'MAP TEAM :

Programming & Development : Alexandra Zaïnal
Concept & Development : Baudouin d'Aumeries
Co-Development & Prog : Marc-Olivier Méhu
Technical & hardware support : Manuel Goepfert

Contact : metmap@orbifly.com




SOURCES & CREDITS :

   NOAA